Edgbaston, United Kingdom

5:29 AM GMT on January 17, 2017 (GMT +0000)
Birmingham | | Change Station

Elev 0 ft 52.48 °N, 1.92 °W | Updated 3 minutes ago

Overcast
Overcast
40.3 °F
Feels Like 40 °F
N
0.6
Wind Variable Wind from NE
Gusts 2.5 mph

Today
High -- | Low -- °F
--% Chance of Precip.
Yesterday
High -- | Low -- °F
Precip. -- in
Pressure 30.48 in
Visibility 1.4 miles
Clouds Overcast 300 ft
Windchill 40 °F
Dew Point 40 °F
Humidity 100%
Rainfall 0.00 in
Snow Depth Not available.
8:08 AM 4:27 PM
Waning Gibbous, 75% visible
METAR EGBB 170520Z 16006KT 2300 BR OVC003 04/04 Q1032
Pressure 30.48 in
Visibility 1.4 miles
Clouds Overcast 300 ft
Windchill 40 °F
Dew Point 40 °F
Humidity 100%
Rainfall 0.00 in
Snow Depth Not available.
8:08 AM 4:27 PM
Waning Gibbous, 75% visible
METAR EGBB 170520Z 16006KT 2300 BR OVC003 04/04 Q1032

Get Your Daily Forecast Email!

Thanks for signing up!

Be on the lookout for a verification email in your inbox.

You'll start receiving the daily forecast at 8 AM.

×

10-Day Weather Forecast

×

Almanac

Astronomy

Jan. 17, 2017 Rise Set
Actual Time
Civil Twilight
Nautical Twilight
Astronomical Twilight
Moon
Length of Visible Light
Length of Day
Tomorrow will be .
, % of the Moon is Illuminated

Today's Extremes

Country Highs Country Lows

Community

WunderPhotos

Upload Photos

1,962,540 photos uploaded!

WunderBlog® & News

Nearby

Air Quality

  Air Quality AQ Index Pollutant
Not available.

Snow Depth

Station Depth Elevation

Earthquake Activity

City Distance Mag. Time & Date
Minimum magnitude displayed is 2.5.

Coastal Water Temperatures

Place Temperature

Stations

Nearby Weather Stations

Station Location Temp. Windchill Dew Point Humidity Wind Precip. Elev Updated Type